sensor_id;sensor_type;location;lat;lon;timestamp;noise_LAeq;noise_LA_min;noise_LA_max;noise_LA01;noise_LA95
72160;Laerm;60045;51.792;10.938;2023-04-03T00:00:11;40.17;38.78;41.54;;
72160;Laerm;60045;51.792;10.938;2023-04-03T00:02:38;40.43;38.58;43.34;;
72160;Laerm;60045;51.792;10.938;2023-04-03T00:05:05;40.33;38.97;41.64;;
72160;Laerm;60045;51.792;10.938;2023-04-03T00:07:32;40.77;39.07;42.90;;
72160;Laerm;60045;51.792;10.938;2023-04-03T00:09:58;40.40;38.85;42.51;;
72160;Laerm;60045;51.792;10.938;2023-04-03T00:12:25;51.16;38.81;68.34;;
72160;Laerm;60045;51.792;10.938;2023-04-03T00:14:52;40.35;38.60;42.58;;
72160;Laerm;60045;51.792;10.938;2023-04-03T00:17:18;40.53;38.85;43.19;;
72160;Laerm;60045;51.792;10.938;2023-04-03T00:19:44;40.26;38.80;41.80;;
72160;Laerm;60045;51.792;10.938;2023-04-03T00:22:11;40.20;38.82;42.05;;
72160;Laerm;60045;51.792;10.938;2023-04-03T00:24:37;52.04;38.79;69.91;;
72160;Laerm;60045;51.792;10.938;2023-04-03T00:27:03;40.28;38.80;42.82;;
72160;Laerm;60045;51.792;10.938;2023-04-03T00:29:31;40.10;38.18;42.27;;
72160;Laerm;60045;51.792;10.938;2023-04-03T00:31:57;53.27;38.64;71.42;;
72160;Laerm;60045;51.792;10.938;2023-04-03T00:34:23;40.52;38.52;45.74;;
72160;Laerm;60045;51.792;10.938;2023-04-03T00:36:49;40.10;38.65;41.62;;
72160;Laerm;60045;51.792;10.938;2023-04-03T00:39:16;40.11;38.78;41.45;;
72160;Laerm;60045;51.792;10.938;2023-04-03T00:41:42;40.11;38.61;41.75;;
72160;Laerm;60045;51.792;10.938;2023-04-03T00:44:19;40.37;38.96;43.69;;
72160;Laerm;60045;51.792;10.938;2023-04-03T00:46:46;47.04;38.89;70.09;;
72160;Laerm;60045;51.792;10.938;2023-04-03T00:49:12;53.41;38.77;72.77;;
72160;Laerm;60045;51.792;10.938;2023-04-03T00:51:39;40.31;38.67;41.77;;
72160;Laerm;60045;51.792;10.938;2023-04-03T00:54:05;53.16;38.82;72.66;;
72160;Laerm;60045;51.792;10.938;2023-04-03T00:56:32;40.36;38.91;41.77;;
72160;Laerm;60045;51.792;10.938;2023-04-03T00:58:58;40.48;38.91;42.86;;
72160;Laerm;60045;51.792;10.938;2023-04-03T01:01:26;61.39;39.87;79.33;;
72160;Laerm;60045;51.792;10.938;2023-04-03T01:03:54;59.19;38.91;75.60;;
72160;Laerm;60045;51.792;10.938;2023-04-03T01:06:23;52.15;39.11;69.47;;
72160;Laerm;60045;51.792;10.938;2023-04-03T01:08:51;40.44;38.77;42.10;;
72160;Laerm;60045;51.792;10.938;2023-04-03T01:11:17;40.37;38.92;42.21;;
72160;Laerm;60045;51.792;10.938;2023-04-03T01:13:44;40.38;38.89;42.66;;
72160;Laerm;60045;51.792;10.938;2023-04-03T01:16:10;40.63;38.73;45.64;;
72160;Laerm;60045;51.792;10.938;2023-04-03T01:18:37;61.19;38.76;79.33;;
72160;Laerm;60045;51.792;10.938;2023-04-03T01:23:59;40.72;39.11;48.34;;
72160;Laerm;60045;51.792;10.938;2023-04-03T01:26:28;63.31;39.10;80.26;;
72160;Laerm;60045;51.792;10.938;2023-04-03T01:28:54;40.42;38.75;47.50;;
72160;Laerm;60045;51.792;10.938;2023-04-03T01:31:22;40.67;38.98;45.74;;
72160;Laerm;60045;51.792;10.938;2023-04-03T01:33:51;61.35;39.09;80.28;;
72160;Laerm;60045;51.792;10.938;2023-04-03T01:36:18;40.52;38.79;46.75;;
72160;Laerm;60045;51.792;10.938;2023-04-03T01:38:46;40.39;38.67;42.02;;
72160;Laerm;60045;51.792;10.938;2023-04-03T01:41:13;40.59;39.04;43.73;;
72160;Laerm;60045;51.792;10.938;2023-04-03T01:43:40;40.44;38.86;41.96;;
72160;Laerm;60045;51.792;10.938;2023-04-03T01:46:06;40.34;38.98;43.07;;
72160;Laerm;60045;51.792;10.938;2023-04-03T01:48:33;52.36;39.11;69.47;;
72160;Laerm;60045;51.792;10.938;2023-04-03T01:51:01;40.46;38.97;44.88;;
72160;Laerm;60045;51.792;10.938;2023-04-03T01:53:27;63.15;39.10;81.83;;
72160;Laerm;60045;51.792;10.938;2023-04-03T01:55:53;40.31;38.93;41.77;;
72160;Laerm;60045;51.792;10.938;2023-04-03T01:58:19;40.38;38.91;41.92;;
72160;Laerm;60045;51.792;10.938;2023-04-03T02:00:46;40.44;38.95;41.70;;
72160;Laerm;60045;51.792;10.938;2023-04-03T02:03:12;40.85;39.13;47.14;;
72160;Laerm;60045;51.792;10.938;2023-04-03T02:05:39;40.63;39.15;45.07;;
72160;Laerm;60045;51.792;10.938;2023-04-03T02:08:07;59.05;39.45;75.28;;
72160;Laerm;60045;51.792;10.938;2023-04-03T02:10:33;42.77;39.22;51.44;;
72160;Laerm;60045;51.792;10.938;2023-04-03T02:12:59;51.43;39.29;67.52;;
72160;Laerm;60045;51.792;10.938;2023-04-03T02:15:26;41.44;39.32;45.39;;
72160;Laerm;60045;51.792;10.938;2023-04-03T02:17:52;40.93;39.08;48.57;;
72160;Laerm;60045;51.792;10.938;2023-04-03T02:20:18;62.27;39.32;80.30;;
72160;Laerm;60045;51.792;10.938;2023-04-03T02:22:45;40.54;38.86;42.00;;
72160;Laerm;60045;51.792;10.938;2023-04-03T02:25:12;40.45;38.81;42.45;;
72160;Laerm;60045;51.792;10.938;2023-04-03T02:27:38;50.36;39.35;67.86;;
72160;Laerm;60045;51.792;10.938;2023-04-03T02:30:05;40.95;39.12;43.40;;
72160;Laerm;60045;51.792;10.938;2023-04-03T02:32:32;54.96;39.58;75.32;;
72160;Laerm;60045;51.792;10.938;2023-04-03T02:34:58;53.44;39.00;70.90;;
72160;Laerm;60045;51.792;10.938;2023-04-03T02:37:24;59.14;39.36;75.47;;
72160;Laerm;60045;51.792;10.938;2023-04-03T02:39:50;40.73;39.12;43.65;;
72160;Laerm;60045;51.792;10.938;2023-04-03T02:42:18;61.14;39.46;78.17;;
72160;Laerm;60045;51.792;10.938;2023-04-03T02:44:44;40.99;39.23;43.22;;
72160;Laerm;60045;51.792;10.938;2023-04-03T02:47:11;63.39;39.74;83.56;;
72160;Laerm;60045;51.792;10.938;2023-04-03T02:49:37;56.11;39.69;74.76;;
72160;Laerm;60045;51.792;10.938;2023-04-03T02:52:04;40.74;39.28;44.04;;
72160;Laerm;60045;51.792;10.938;2023-04-03T02:54:30;53.16;39.06;72.38;;
72160;Laerm;60045;51.792;10.938;2023-04-03T02:56:56;56.65;39.72;76.21;;
72160;Laerm;60045;51.792;10.938;2023-04-03T02:59:24;53.97;39.35;70.70;;
72160;Laerm;60045;51.792;10.938;2023-04-03T03:01:50;56.17;39.84;69.87;;
72160;Laerm;60045;51.792;10.938;2023-04-03T03:04:17;58.42;40.12;75.92;;
72160;Laerm;60045;51.792;10.938;2023-04-03T03:06:43;57.62;40.23;75.92;;
72160;Laerm;60045;51.792;10.938;2023-04-03T03:09:09;54.00;39.43;73.55;;
72160;Laerm;60045;51.792;10.938;2023-04-03T03:11:35;59.79;39.28;76.21;;
72160;Laerm;60045;51.792;10.938;2023-04-03T03:14:01;50.01;39.27;68.40;;
72160;Laerm;60045;51.792;10.938;2023-04-03T03:16:29;63.94;41.34;82.27;;
72160;Laerm;60045;51.792;10.938;2023-04-03T03:18:55;55.52;39.61;70.33;;
72160;Laerm;60045;51.792;10.938;2023-04-03T03:21:21;57.42;39.60;73.19;;
72160;Laerm;60045;51.792;10.938;2023-04-03T03:23:48;62.82;40.02;79.48;;
72160;Laerm;60045;51.792;10.938;2023-04-03T03:26:14;63.67;40.22;79.34;;
72160;Laerm;60045;51.792;10.938;2023-04-03T03:28:40;57.30;39.55;72.80;;
72160;Laerm;60045;51.792;10.938;2023-04-03T03:31:10;60.67;40.00;75.73;;
72160;Laerm;60045;51.792;10.938;2023-04-03T03:33:38;65.91;41.75;88.91;;
72160;Laerm;60045;51.792;10.938;2023-04-03T03:36:05;58.95;40.53;73.56;;
72160;Laerm;60045;51.792;10.938;2023-04-03T03:38:31;59.59;39.69;73.64;;
72160;Laerm;60045;51.792;10.938;2023-04-03T03:40:57;59.62;39.96;75.61;;
72160;Laerm;60045;51.792;10.938;2023-04-03T03:43:23;61.73;40.73;75.48;;
72160;Laerm;60045;51.792;10.938;2023-04-03T03:45:50;61.00;41.05;74.65;;
72160;Laerm;60045;51.792;10.938;2023-04-03T03:48:17;66.40;41.32;86.40;;
72160;Laerm;60045;51.792;10.938;2023-04-03T03:50:45;66.15;40.18;82.72;;
72160;Laerm;60045;51.792;10.938;2023-04-03T03:53:11;60.07;40.49;73.02;;
72160;Laerm;60045;51.792;10.938;2023-04-03T03:55:37;53.77;40.28;72.42;;
72160;Laerm;60045;51.792;10.938;2023-04-03T03:58:03;48.54;41.17;58.36;;
72160;Laerm;60045;51.792;10.938;2023-04-03T04:00:30;64.25;42.56;78.70;;
72160;Laerm;60045;51.792;10.938;2023-04-03T04:02:56;58.45;41.97;75.32;;
72160;Laerm;60045;51.792;10.938;2023-04-03T04:05:22;65.39;42.96;82.89;;
72160;Laerm;60045;51.792;10.938;2023-04-03T04:07:50;62.31;42.46;79.36;;
72160;Laerm;60045;51.792;10.938;2023-04-03T04:10:16;62.17;42.77;78.92;;
72160;Laerm;60045;51.792;10.938;2023-04-03T04:12:42;64.94;42.84;80.07;;
72160;Laerm;60045;51.792;10.938;2023-04-03T04:15:09;60.38;41.97;74.65;;
72160;Laerm;60045;51.792;10.938;2023-04-03T04:17:36;55.93;42.33;69.17;;
72160;Laerm;60045;51.792;10.938;2023-04-03T04:20:02;61.54;41.74;79.12;;
72160;Laerm;60045;51.792;10.938;2023-04-03T04:22:30;60.89;42.87;75.10;;
72160;Laerm;60045;51.792;10.938;2023-04-03T04:24:57;60.03;42.65;73.01;;
72160;Laerm;60045;51.792;10.938;2023-04-03T04:27:23;62.70;42.57;77.88;;
72160;Laerm;60045;51.792;10.938;2023-04-03T04:29:50;59.63;42.41;74.46;;
72160;Laerm;60045;51.792;10.938;2023-04-03T04:32:16;59.44;42.74;74.73;;
72160;Laerm;60045;51.792;10.938;2023-04-03T04:34:42;66.09;44.01;81.07;;
72160;Laerm;60045;51.792;10.938;2023-04-03T04:37:08;60.36;41.89;74.99;;
72160;Laerm;60045;51.792;10.938;2023-04-03T04:39:34;67.43;45.35;81.55;;
72160;Laerm;60045;51.792;10.938;2023-04-03T04:42:02;60.77;42.49;76.49;;
72160;Laerm;60045;51.792;10.938;2023-04-03T04:44:29;60.30;42.31;78.17;;
72160;Laerm;60045;51.792;10.938;2023-04-03T04:46:55;62.80;43.57;76.44;;
72160;Laerm;60045;51.792;10.938;2023-04-03T04:49:21;64.32;42.96;79.41;;
72160;Laerm;60045;51.792;10.938;2023-04-03T04:51:47;60.83;41.88;75.83;;
72160;Laerm;60045;51.792;10.938;2023-04-03T04:54:13;67.71;42.94;82.37;;
72160;Laerm;60045;51.792;10.938;2023-04-03T04:56:40;56.91;42.02;69.51;;
72160;Laerm;60045;51.792;10.938;2023-04-03T04:59:07;59.07;40.99;76.33;;
72160;Laerm;60045;51.792;10.938;2023-04-03T05:01:33;58.82;41.13;73.39;;
72160;Laerm;60045;51.792;10.938;2023-04-03T05:04:00;61.99;41.89;78.86;;
72160;Laerm;60045;51.792;10.938;2023-04-03T05:06:26;60.04;41.89;74.62;;
72160;Laerm;60045;51.792;10.938;2023-04-03T05:08:55;62.07;41.41;77.88;;
72160;Laerm;60045;51.792;10.938;2023-04-03T05:11:21;61.31;41.64;75.39;;
72160;Laerm;60045;51.792;10.938;2023-04-03T05:13:47;59.47;41.51;72.40;;
72160;Laerm;60045;51.792;10.938;2023-04-03T05:16:15;59.05;42.22;72.63;;
72160;Laerm;60045;51.792;10.938;2023-04-03T05:18:41;60.19;42.08;75.54;;
72160;Laerm;60045;51.792;10.938;2023-04-03T05:21:07;64.93;42.97;83.92;;
72160;Laerm;60045;51.792;10.938;2023-04-03T05:23:33;66.05;42.38;84.40;;
72160;Laerm;60045;51.792;10.938;2023-04-03T05:26:00;60.88;41.76;73.64;;
72160;Laerm;60045;51.792;10.938;2023-04-03T05:28:26;66.54;41.81;85.97;;
72160;Laerm;60045;51.792;10.938;2023-04-03T05:30:52;52.32;41.48;70.97;;
72160;Laerm;60045;51.792;10.938;2023-04-03T05:33:20;60.16;42.04;73.95;;
72160;Laerm;60045;51.792;10.938;2023-04-03T05:35:46;63.22;41.73;80.17;;
72160;Laerm;60045;51.792;10.938;2023-04-03T05:38:13;66.40;41.74;85.79;;
72160;Laerm;60045;51.792;10.938;2023-04-03T05:40:39;61.98;41.71;75.36;;
72160;Laerm;60045;51.792;10.938;2023-04-03T05:43:06;61.66;41.49;73.67;;
72160;Laerm;60045;51.792;10.938;2023-04-03T05:45:32;60.88;42.07;74.58;;
72160;Laerm;60045;51.792;10.938;2023-04-03T05:47:58;59.55;42.09;72.26;;
72160;Laerm;60045;51.792;10.938;2023-04-03T05:50:26;62.82;41.16;78.38;;
72160;Laerm;60045;51.792;10.938;2023-04-03T05:52:52;62.36;40.68;81.03;;
72160;Laerm;60045;51.792;10.938;2023-04-03T05:55:21;65.64;41.41;82.72;;
72160;Laerm;60045;51.792;10.938;2023-04-03T05:57:47;61.21;40.95;75.58;;
72160;Laerm;60045;51.792;10.938;2023-04-03T06:00:13;60.20;40.80;76.18;;
72160;Laerm;60045;51.792;10.938;2023-04-03T06:02:40;63.42;41.05;80.46;;
72160;Laerm;60045;51.792;10.938;2023-04-03T06:05:07;58.21;40.79;74.67;;
72160;Laerm;60045;51.792;10.938;2023-04-03T06:07:35;64.20;41.75;80.25;;
72160;Laerm;60045;51.792;10.938;2023-04-03T06:10:02;68.56;41.93;87.03;;
72160;Laerm;60045;51.792;10.938;2023-04-03T06:12:28;66.76;43.34;82.53;;
72160;Laerm;60045;51.792;10.938;2023-04-03T06:14:55;55.64;40.78;69.76;;
72160;Laerm;60045;51.792;10.938;2023-04-03T06:17:22;67.41;42.06;80.58;;
72160;Laerm;60045;51.792;10.938;2023-04-03T06:19:48;65.02;41.79;81.02;;
72160;Laerm;60045;51.792;10.938;2023-04-03T06:22:14;55.90;41.49;71.38;;
72160;Laerm;60045;51.792;10.938;2023-04-03T06:24:42;66.09;42.10;82.84;;
72160;Laerm;60045;51.792;10.938;2023-04-03T06:27:09;61.46;43.09;75.32;;
72160;Laerm;60045;51.792;10.938;2023-04-03T06:29:35;62.75;41.63;79.07;;
72160;Laerm;60045;51.792;10.938;2023-04-03T06:32:02;59.41;41.53;73.04;;
72160;Laerm;60045;51.792;10.938;2023-04-03T06:34:28;58.11;40.63;74.94;;
72160;Laerm;60045;51.792;10.938;2023-04-03T06:36:54;62.48;42.21;79.48;;
72160;Laerm;60045;51.792;10.938;2023-04-03T06:39:21;48.54;40.62;66.58;;
72160;Laerm;60045;51.792;10.938;2023-04-03T06:41:49;66.71;42.84;81.15;;
72160;Laerm;60045;51.792;10.938;2023-04-03T06:44:16;60.89;41.00;76.97;;
72160;Laerm;60045;51.792;10.938;2023-04-03T06:46:43;66.59;41.81;80.19;;
72160;Laerm;60045;51.792;10.938;2023-04-03T06:49:10;60.26;41.65;73.14;;
72160;Laerm;60045;51.792;10.938;2023-04-03T06:51:36;58.64;40.73;71.62;;
72160;Laerm;60045;51.792;10.938;2023-04-03T06:54:02;64.64;41.60;78.84;;
72160;Laerm;60045;51.792;10.938;2023-04-03T06:56:29;64.42;42.34;79.12;;
72160;Laerm;60045;51.792;10.938;2023-04-03T06:58:57;61.60;42.79;73.12;;
72160;Laerm;60045;51.792;10.938;2023-04-03T07:01:24;65.43;42.82;79.70;;
72160;Laerm;60045;51.792;10.938;2023-04-03T07:03:51;65.12;41.91;85.09;;
72160;Laerm;60045;51.792;10.938;2023-04-03T07:06:17;60.36;40.58;74.93;;
72160;Laerm;60045;51.792;10.938;2023-04-03T07:08:44;54.78;40.72;69.19;;
72160;Laerm;60045;51.792;10.938;2023-04-03T07:11:11;66.15;42.63;87.18;;
72160;Laerm;60045;51.792;10.938;2023-04-03T07:13:38;64.63;42.43;80.55;;
72160;Laerm;60045;51.792;10.938;2023-04-03T07:16:07;64.09;41.28;80.27;;
72160;Laerm;60045;51.792;10.938;2023-04-03T07:18:33;66.03;42.62;83.69;;
72160;Laerm;60045;51.792;10.938;2023-04-03T07:20:59;65.55;42.68;89.02;;
72160;Laerm;60045;51.792;10.938;2023-04-03T07:23:27;54.54;40.74;71.70;;
72160;Laerm;60045;51.792;10.938;2023-04-03T07:25:53;65.78;42.27;78.75;;
72160;Laerm;60045;51.792;10.938;2023-04-03T07:28:20;66.52;42.06;79.59;;
72160;Laerm;60045;51.792;10.938;2023-04-03T07:30:48;60.85;41.18;73.85;;
72160;Laerm;60045;51.792;10.938;2023-04-03T07:33:16;60.04;42.17;73.39;;
72160;Laerm;60045;51.792;10.938;2023-04-03T07:35:43;59.01;40.32;74.34;;
72160;Laerm;60045;51.792;10.938;2023-04-03T07:38:09;61.31;41.18;75.52;;
72160;Laerm;60045;51.792;10.938;2023-04-03T07:40:36;60.14;40.84;74.32;;
72160;Laerm;60045;51.792;10.938;2023-04-03T07:43:02;67.49;41.47;85.61;;
72160;Laerm;60045;51.792;10.938;2023-04-03T07:45:29;59.56;40.37;74.04;;
72160;Laerm;60045;51.792;10.938;2023-04-03T07:47:55;66.93;42.03;83.19;;
72160;Laerm;60045;51.792;10.938;2023-04-03T07:50:23;60.99;42.01;74.57;;
72160;Laerm;60045;51.792;10.938;2023-04-03T07:52:49;66.65;43.58;80.85;;
72160;Laerm;60045;51.792;10.938;2023-04-03T07:55:17;64.13;43.07;75.67;;
72160;Laerm;60045;51.792;10.938;2023-04-03T07:57:43;62.35;41.81;74.32;;
72160;Laerm;60045;51.792;10.938;2023-04-03T08:00:10;63.56;41.66;78.17;;
72160;Laerm;60045;51.792;10.938;2023-04-03T08:02:37;63.30;42.17;76.32;;
72160;Laerm;60045;51.792;10.938;2023-04-03T08:05:03;64.69;41.85;79.78;;
72160;Laerm;60045;51.792;10.938;2023-04-03T08:07:31;61.75;40.34;76.61;;
72160;Laerm;60045;51.792;10.938;2023-04-03T08:09:57;60.29;40.65;74.48;;
72160;Laerm;60045;51.792;10.938;2023-04-03T08:12:23;59.24;40.45;73.98;;
72160;Laerm;60045;51.792;10.938;2023-04-03T08:14:50;64.04;42.55;78.35;;
72160;Laerm;60045;51.792;10.938;2023-04-03T08:17:16;64.64;43.67;80.46;;
72160;Laerm;60045;51.792;10.938;2023-04-03T08:19:42;65.47;41.75;80.64;;
72160;Laerm;60045;51.792;10.938;2023-04-03T08:22:09;60.10;40.85;73.22;;
72160;Laerm;60045;51.792;10.938;2023-04-03T08:24:36;62.09;41.46;76.13;;
72160;Laerm;60045;51.792;10.938;2023-04-03T08:27:02;64.57;42.61;78.45;;
72160;Laerm;60045;51.792;10.938;2023-04-03T08:29:29;66.79;43.73;80.14;;
72160;Laerm;60045;51.792;10.938;2023-04-03T08:31:55;64.48;44.65;78.49;;
72160;Laerm;60045;51.792;10.938;2023-04-03T08:34:21;62.97;40.64;75.65;;
72160;Laerm;60045;51.792;10.938;2023-04-03T08:36:47;61.42;39.88;73.65;;
72160;Laerm;60045;51.792;10.938;2023-04-03T08:39:14;60.28;40.58;73.73;;
72160;Laerm;60045;51.792;10.938;2023-04-03T08:41:42;65.75;43.10;77.03;;
72160;Laerm;60045;51.792;10.938;2023-04-03T08:44:14;60.49;42.57;73.17;;
72160;Laerm;60045;51.792;10.938;2023-04-03T08:46:44;63.54;42.34;77.51;;
72160;Laerm;60045;51.792;10.938;2023-04-03T08:49:15;63.75;42.41;80.98;;
72160;Laerm;60045;51.792;10.938;2023-04-03T08:51:47;63.62;42.33;79.99;;
72160;Laerm;60045;51.792;10.938;2023-04-03T08:54:17;60.43;42.43;74.59;;
72160;Laerm;60045;51.792;10.938;2023-04-03T08:56:48;65.69;41.03;80.91;;
72160;Laerm;60045;51.792;10.938;2023-04-03T08:59:15;60.43;40.97;71.52;;
72160;Laerm;60045;51.792;10.938;2023-04-03T09:01:45;66.43;42.22;86.53;;
72160;Laerm;60045;51.792;10.938;2023-04-03T09:04:12;58.98;41.15;72.82;;
72160;Laerm;60045;51.792;10.938;2023-04-03T09:06:39;61.72;41.46;79.47;;
72160;Laerm;60045;51.792;10.938;2023-04-03T09:09:11;63.15;41.63;75.44;;
72160;Laerm;60045;51.792;10.938;2023-04-03T09:11:43;61.24;41.48;71.49;;
72160;Laerm;60045;51.792;10.938;2023-04-03T09:14:14;64.58;41.63;76.15;;
72160;Laerm;60045;51.792;10.938;2023-04-03T09:16:47;62.73;41.43;75.09;;
72160;Laerm;60045;51.792;10.938;2023-04-03T09:19:17;62.48;42.12;73.21;;
72160;Laerm;60045;51.792;10.938;2023-04-03T09:21:47;59.89;41.51;72.30;;
72160;Laerm;60045;51.792;10.938;2023-04-03T09:24:14;61.45;42.59;72.67;;
72160;Laerm;60045;51.792;10.938;2023-04-03T09:26:42;63.88;41.35;76.50;;
72160;Laerm;60045;51.792;10.938;2023-04-03T09:29:10;58.52;40.93;71.07;;
72160;Laerm;60045;51.792;10.938;2023-04-03T09:31:42;61.94;41.18;75.32;;
72160;Laerm;60045;51.792;10.938;2023-04-03T09:34:13;63.10;42.33;80.69;;
72160;Laerm;60045;51.792;10.938;2023-04-03T09:36:43;66.16;42.22;80.64;;
72160;Laerm;60045;51.792;10.938;2023-04-03T09:39:11;62.21;42.34;73.87;;
72160;Laerm;60045;51.792;10.938;2023-04-03T09:41:37;59.66;42.34;73.66;;
72160;Laerm;60045;51.792;10.938;2023-04-03T09:44:17;64.03;44.18;75.10;;
72160;Laerm;60045;51.792;10.938;2023-04-03T09:46:47;60.25;42.18;74.73;;
72160;Laerm;60045;51.792;10.938;2023-04-03T09:49:13;66.27;41.69;84.54;;
72160;Laerm;60045;51.792;10.938;2023-04-03T09:51:40;59.68;42.88;73.86;;
72160;Laerm;60045;51.792;10.938;2023-04-03T09:56:49;59.96;41.87;76.33;;
72160;Laerm;60045;51.792;10.938;2023-04-03T09:59:16;61.73;43.73;72.49;;
72160;Laerm;60045;51.792;10.938;2023-04-03T10:01:43;60.59;41.97;70.73;;
72160;Laerm;60045;51.792;10.938;2023-04-03T10:04:23;63.07;43.28;77.04;;
72160;Laerm;60045;51.792;10.938;2023-04-03T10:06:50;63.92;43.49;82.22;;
72160;Laerm;60045;51.792;10.938;2023-04-03T10:09:19;60.62;41.32;72.92;;
72160;Laerm;60045;51.792;10.938;2023-04-03T10:11:59;55.70;40.98;72.61;;
72160;Laerm;60045;51.792;10.938;2023-04-03T10:14:26;62.54;41.38;79.97;;
72160;Laerm;60045;51.792;10.938;2023-04-03T10:16:52;61.18;42.53;75.40;;
72160;Laerm;60045;51.792;10.938;2023-04-03T10:19:29;58.02;40.57;71.60;;
72160;Laerm;60045;51.792;10.938;2023-04-03T10:21:58;60.81;42.73;72.14;;
72160;Laerm;60045;51.792;10.938;2023-04-03T10:24:28;66.17;42.97;80.74;;
72160;Laerm;60045;51.792;10.938;2023-04-03T10:26:58;57.20;40.48;71.02;;
72160;Laerm;60045;51.792;10.938;2023-04-03T10:29:32;65.88;42.09;81.48;;
72160;Laerm;60045;51.792;10.938;2023-04-03T10:32:01;61.12;41.79;75.83;;
72160;Laerm;60045;51.792;10.938;2023-04-03T10:34:33;58.75;42.57;73.58;;
72160;Laerm;60045;51.792;10.938;2023-04-03T10:37:04;60.31;41.80;76.52;;
72160;Laerm;60045;51.792;10.938;2023-04-03T10:39:34;63.46;42.25;75.90;;
72160;Laerm;60045;51.792;10.938;2023-04-03T10:42:07;67.99;44.90;81.39;;
72160;Laerm;60045;51.792;10.938;2023-04-03T10:44:36;58.76;41.41;74.21;;
72160;Laerm;60045;51.792;10.938;2023-04-03T10:47:09;59.60;41.07;73.58;;
72160;Laerm;60045;51.792;10.938;2023-04-03T10:49:43;63.60;41.55;78.47;;
72160;Laerm;60045;51.792;10.938;2023-04-03T10:52:14;57.92;40.80;73.43;;
72160;Laerm;60045;51.792;10.938;2023-04-03T10:54:44;65.51;42.85;79.67;;
72160;Laerm;60045;51.792;10.938;2023-04-03T10:57:15;65.57;43.74;82.98;;
72160;Laerm;60045;51.792;10.938;2023-04-03T10:59:43;61.68;41.72;77.40;;
72160;Laerm;60045;51.792;10.938;2023-04-03T11:02:13;61.76;40.75;76.51;;
72160;Laerm;60045;51.792;10.938;2023-04-03T11:04:45;68.12;43.31;85.99;;
72160;Laerm;60045;51.792;10.938;2023-04-03T11:07:15;64.11;39.46;81.95;;
72160;Laerm;60045;51.792;10.938;2023-04-03T11:09:44;65.40;42.10;81.80;;
72160;Laerm;60045;51.792;10.938;2023-04-03T11:12:14;63.07;41.06;77.34;;
72160;Laerm;60045;51.792;10.938;2023-04-03T11:14:43;64.17;39.90;84.58;;
72160;Laerm;60045;51.792;10.938;2023-04-03T11:17:11;64.28;41.51;80.08;;
72160;Laerm;60045;51.792;10.938;2023-04-03T11:19:41;67.10;42.41;86.21;;
72160;Laerm;60045;51.792;10.938;2023-04-03T11:22:16;63.83;41.76;77.15;;
72160;Laerm;60045;51.792;10.938;2023-04-03T11:24:46;65.36;41.01;82.33;;
72160;Laerm;60045;51.792;10.938;2023-04-03T11:27:19;57.28;41.54;72.08;;
72160;Laerm;60045;51.792;10.938;2023-04-03T11:29:47;60.58;41.58;74.42;;
72160;Laerm;60045;51.792;10.938;2023-04-03T11:34:58;64.29;42.58;78.43;;
72160;Laerm;60045;51.792;10.938;2023-04-03T11:37:28;61.84;39.77;74.14;;
72160;Laerm;60045;51.792;10.938;2023-04-03T11:39:56;63.86;40.76;78.61;;
72160;Laerm;60045;51.792;10.938;2023-04-03T11:42:25;59.98;40.01;73.64;;
72160;Laerm;60045;51.792;10.938;2023-04-03T11:47:44;67.55;40.87;85.62;;
72160;Laerm;60045;51.792;10.938;2023-04-03T11:50:13;64.91;41.66;78.87;;
72160;Laerm;60045;51.792;10.938;2023-04-03T11:53:01;57.32;39.78;75.50;;
72160;Laerm;60045;51.792;10.938;2023-04-03T11:55:44;60.61;40.95;72.97;;
72160;Laerm;60045;51.792;10.938;2023-04-03T11:58:12;61.69;41.05;72.90;;
72160;Laerm;60045;51.792;10.938;2023-04-03T12:00:52;63.64;40.44;81.60;;
72160;Laerm;60045;51.792;10.938;2023-04-03T12:08:58;59.88;41.05;74.50;;
72160;Laerm;60045;51.792;10.938;2023-04-03T12:11:25;63.56;40.16;80.64;;
72160;Laerm;60045;51.792;10.938;2023-04-03T12:14:04;65.01;40.79;82.77;;
72160;Laerm;60045;51.792;10.938;2023-04-03T12:16:32;59.73;40.10;72.14;;
72160;Laerm;60045;51.792;10.938;2023-04-03T12:19:00;61.79;39.70;76.80;;
72160;Laerm;60045;51.792;10.938;2023-04-03T12:24:27;64.82;43.43;80.62;;
72160;Laerm;60045;51.792;10.938;2023-04-03T12:27:04;60.68;40.40;72.91;;
72160;Laerm;60045;51.792;10.938;2023-04-03T12:29:33;62.54;40.90;74.69;;
72160;Laerm;60045;51.792;10.938;2023-04-03T12:32:04;62.04;40.01;76.13;;
72160;Laerm;60045;51.792;10.938;2023-04-03T12:34:38;64.11;40.94;78.20;;
72160;Laerm;60045;51.792;10.938;2023-04-03T12:37:08;60.96;40.92;73.55;;
72160;Laerm;60045;51.792;10.938;2023-04-03T12:39:59;62.81;41.17;78.61;;
72160;Laerm;60045;51.792;10.938;2023-04-03T12:42:40;64.64;41.06;79.87;;
72160;Laerm;60045;51.792;10.938;2023-04-03T12:45:14;61.09;40.99;74.06;;
72160;Laerm;60045;51.792;10.938;2023-04-03T12:47:42;65.91;41.48;79.54;;
72160;Laerm;60045;51.792;10.938;2023-04-03T12:50:16;61.44;40.77;76.03;;
72160;Laerm;60045;51.792;10.938;2023-04-03T12:52:45;61.93;41.93;74.75;;
72160;Laerm;60045;51.792;10.938;2023-04-03T12:55:15;63.96;43.23;73.64;;
72160;Laerm;60045;51.792;10.938;2023-04-03T12:57:42;61.25;41.64;77.16;;
72160;Laerm;60045;51.792;10.938;2023-04-03T13:00:31;63.18;41.10;74.89;;
72160;Laerm;60045;51.792;10.938;2023-04-03T13:02:59;61.71;40.13;76.56;;
72160;Laerm;60045;51.792;10.938;2023-04-03T13:05:25;61.85;39.86;76.41;;
72160;Laerm;60045;51.792;10.938;2023-04-03T13:07:52;61.76;40.01;75.70;;
72160;Laerm;60045;51.792;10.938;2023-04-03T13:10:23;66.05;40.35;85.24;;
72160;Laerm;60045;51.792;10.938;2023-04-03T13:12:52;62.44;42.16;75.20;;
72160;Laerm;60045;51.792;10.938;2023-04-03T13:15:19;58.91;39.15;71.51;;
72160;Laerm;60045;51.792;10.938;2023-04-03T13:17:47;63.34;41.49;84.72;;
72160;Laerm;60045;51.792;10.938;2023-04-03T13:20:17;63.88;41.21;80.18;;
72160;Laerm;60045;51.792;10.938;2023-04-03T13:22:46;62.06;41.60;73.36;;
72160;Laerm;60045;51.792;10.938;2023-04-03T13:25:14;65.76;44.59;79.38;;
72160;Laerm;60045;51.792;10.938;2023-04-03T13:27:42;62.49;40.43;74.62;;
72160;Laerm;60045;51.792;10.938;2023-04-03T13:30:17;58.74;40.04;74.04;;
72160;Laerm;60045;51.792;10.938;2023-04-03T13:32:46;66.43;40.62;79.19;;
72160;Laerm;60045;51.792;10.938;2023-04-03T13:35:29;63.37;40.42;75.41;;
72160;Laerm;60045;51.792;10.938;2023-04-03T13:37:56;58.58;39.75;72.79;;
72160;Laerm;60045;51.792;10.938;2023-04-03T13:40:23;62.74;41.19;74.21;;
72160;Laerm;60045;51.792;10.938;2023-04-03T13:43:00;63.98;42.07;81.30;;
72160;Laerm;60045;51.792;10.938;2023-04-03T13:45:26;62.45;40.12;74.83;;
72160;Laerm;60045;51.792;10.938;2023-04-03T13:48:05;61.20;40.21;74.03;;
72160;Laerm;60045;51.792;10.938;2023-04-03T13:50:32;65.86;42.04;80.96;;
72160;Laerm;60045;51.792;10.938;2023-04-03T13:52:59;58.15;39.75;72.19;;
72160;Laerm;60045;51.792;10.938;2023-04-03T13:55:28;62.40;41.40;73.49;;